createdAt,value
2022-07-28T00:00:43.306Z,55.69
2022-07-28T00:03:15.907Z,55.96
2022-07-28T00:05:48.184Z,55.69
2022-07-28T00:08:22.437Z,55.17
2022-07-28T00:10:54.828Z,55.16
2022-07-28T00:13:27.178Z,55.42
2022-07-28T00:16:00.368Z,55.58
2022-07-28T00:18:33.093Z,55.98
2022-07-28T00:21:05.747Z,56.21
2022-07-28T00:23:39.264Z,56.14
2022-07-28T00:26:13.655Z,56.60
2022-07-28T00:28:48.789Z,56.67
2022-07-28T00:31:22.856Z,56.41
2022-07-28T00:33:57.919Z,56.60
2022-07-28T00:36:31.329Z,56.94
2022-07-28T00:39:05.656Z,56.72
2022-07-28T00:41:38.510Z,56.89
2022-07-28T00:44:11.302Z,56.67
2022-07-28T00:46:43.965Z,56.42
2022-07-28T00:49:17.641Z,56.48
2022-07-28T00:51:50.964Z,56.09
2022-07-28T00:54:23.224Z,55.70
2022-07-28T00:56:57.012Z,55.50
2022-07-28T00:59:35.564Z,55.16
2022-07-28T01:02:08.902Z,55.59
2022-07-28T01:04:41.310Z,55.98
2022-07-28T01:07:24.872Z,55.96
2022-07-28T01:10:06.322Z,55.92
2022-07-28T01:12:49.702Z,56.28
2022-07-28T01:15:31.221Z,56.08
2022-07-28T01:18:08.026Z,56.08
2022-07-28T01:20:43.907Z,55.89
2022-07-28T01:23:46.261Z,55.70
2022-07-28T01:26:43.206Z,55.73
2022-07-28T01:29:29.532Z,55.90
2022-07-28T01:32:06.372Z,55.96
2022-07-28T01:34:46.666Z,55.90
2022-07-28T01:37:22.686Z,56.14
2022-07-28T01:39:58.549Z,56.01
2022-07-28T01:42:36.847Z,55.83
2022-07-28T01:45:12.410Z,55.60
2022-07-28T01:47:47.767Z,55.89
2022-07-28T01:50:24.984Z,55.97
2022-07-28T01:52:59.244Z,55.80
2022-07-28T01:55:32.872Z,55.70
2022-07-28T01:58:05.974Z,55.66
2022-07-28T02:00:40.011Z,55.95
2022-07-28T02:03:14.583Z,56.18
2022-07-28T02:05:51.021Z,55.81
2022-07-28T02:08:25.718Z,56.04
2022-07-28T02:11:25.333Z,55.90
2022-07-28T02:13:59.268Z,55.67
2022-07-28T02:16:33.128Z,55.89
2022-07-28T02:19:09.611Z,55.64
2022-07-28T02:21:42.983Z,55.93
2022-07-28T02:24:16.390Z,56.13
2022-07-28T02:26:55.034Z,56.65
2022-07-28T02:29:49.604Z,56.29
2022-07-28T02:32:28.594Z,56.07
2022-07-28T02:35:09.369Z,56.28
2022-07-28T02:37:50.974Z,56.55
2022-07-28T02:40:24.665Z,56.79
2022-07-28T02:42:59.318Z,57.06
2022-07-28T02:45:33.453Z,57.04
2022-07-28T02:48:11.669Z,57.30
2022-07-28T02:50:46.663Z,57.50
2022-07-28T02:53:20.067Z,57.59
2022-07-28T02:55:54.271Z,57.69
2022-07-28T02:58:29.639Z,57.61
2022-07-28T03:01:02.698Z,57.46
2022-07-28T03:03:39.265Z,57.43
2022-07-28T03:06:13.957Z,57.37
2022-07-28T03:08:50.618Z,56.91
2022-07-28T03:11:22.894Z,56.71
2022-07-28T03:13:55.418Z,56.33
2022-07-28T03:16:28.446Z,56.47
2022-07-28T03:19:00.886Z,56.55
2022-07-28T03:21:33.207Z,56.81
2022-07-28T03:24:06.799Z,56.58
2022-07-28T03:26:46.894Z,56.94
2022-07-28T03:29:19.980Z,56.99
2022-07-28T03:31:56.263Z,57.05
2022-07-28T03:34:29.876Z,56.96
2022-07-28T03:37:34.579Z,56.74
2022-07-28T03:40:10.547Z,56.89
2022-07-28T03:42:45.117Z,56.83
2022-07-28T03:45:19.576Z,57.14
2022-07-28T03:47:57.031Z,57.07
2022-07-28T03:50:31.189Z,57.27
2022-07-28T03:53:04.270Z,57.42
2022-07-28T03:55:36.528Z,57.70
2022-07-28T03:58:08.884Z,57.85
2022-07-28T04:00:41.089Z,57.87
2022-07-28T04:03:35.344Z,58.27
2022-07-28T04:06:05.568Z,58.49
2022-07-28T04:09:06.195Z,58.35
2022-07-28T04:11:39.473Z,58.33
2022-07-28T04:14:16.685Z,58.46
2022-07-28T04:16:50.114Z,58.56
2022-07-28T04:19:22.566Z,58.74
2022-07-28T04:21:54.725Z,58.95
2022-07-28T04:24:27.211Z,59.19
2022-07-28T04:26:59.866Z,59.78
2022-07-28T04:29:32.455Z,59.99
2022-07-28T04:32:06.928Z,60.15
2022-07-28T04:34:39.458Z,60.72
2022-07-28T04:37:12.963Z,61.06
2022-07-28T04:39:48.174Z,61.04
2022-07-28T04:42:20.775Z,61.10
2022-07-28T04:44:52.894Z,61.55
2022-07-28T04:47:25.350Z,61.96
2022-07-28T04:49:57.800Z,61.91
2022-07-28T04:52:30.001Z,62.28
2022-07-28T04:55:02.353Z,62.30
2022-07-28T04:57:34.733Z,62.77
2022-07-28T05:00:13.559Z,62.70
2022-07-28T05:02:48.034Z,62.68
2022-07-28T05:05:20.373Z,62.97
2022-07-28T05:07:54.221Z,63.31
2022-07-28T05:10:26.735Z,62.92
2022-07-28T05:12:59.224Z,63.16
2022-07-28T05:15:31.474Z,63.40
2022-07-28T05:18:03.854Z,63.63
2022-07-28T05:20:36.086Z,63.42
2022-07-28T05:23:08.702Z,64.11
2022-07-28T05:25:42.573Z,64.51
2022-07-28T05:28:15.154Z,64.56
2022-07-28T05:30:49.488Z,64.69
2022-07-28T05:33:22.146Z,64.72
2022-07-28T05:35:57.567Z,64.45
2022-07-28T05:38:30.475Z,63.61
2022-07-28T05:41:02.910Z,63.76
2022-07-28T05:43:37.745Z,63.42
2022-07-28T05:46:10.079Z,63.30
2022-07-28T05:48:42.587Z,62.88
2022-07-28T05:51:15.021Z,61.58
2022-07-28T05:53:49.708Z,60.20
2022-07-28T05:56:23.168Z,59.72
2022-07-28T05:58:55.664Z,59.52
2022-07-28T06:01:27.840Z,58.34
2022-07-28T06:04:26.054Z,58.66
2022-07-28T06:06:52.673Z,58.44
2022-07-28T06:09:25.206Z,56.71
2022-07-28T06:11:57.763Z,56.78
2022-07-28T06:14:31.214Z,57.00
2022-07-28T06:17:03.737Z,56.13
2022-07-28T06:19:36.356Z,54.47
2022-07-28T06:22:08.682Z,54.11
2022-07-28T06:24:41.093Z,54.25
2022-07-28T06:27:13.334Z,54.53
2022-07-28T06:29:45.842Z,54.21
2022-07-28T06:32:17.993Z,53.56
2022-07-28T06:34:50.243Z,52.15
2022-07-28T06:37:22.569Z,51.91
2022-07-28T06:39:55.023Z,52.28
2022-07-28T06:42:27.315Z,52.29
2022-07-28T06:45:00.130Z,52.05
2022-07-28T06:47:32.657Z,51.20
2022-07-28T06:50:06.086Z,51.51
2022-07-28T06:52:59.480Z,51.24
2022-07-28T06:55:35.319Z,50.86
2022-07-28T06:58:08.127Z,48.89
2022-07-28T07:00:40.504Z,49.48
2022-07-28T07:03:12.879Z,49.10
2022-07-28T07:05:45.012Z,49.37
2022-07-28T07:08:21.713Z,49.82
2022-07-28T07:10:54.230Z,49.99
2022-07-28T07:13:26.805Z,48.87
2022-07-28T07:15:59.382Z,48.77
2022-07-28T07:18:31.874Z,48.96
2022-07-28T07:21:04.652Z,48.96
2022-07-28T07:23:36.880Z,49.58
2022-07-28T07:26:09.177Z,48.89
2022-07-28T07:28:41.857Z,48.85
2022-07-28T07:31:14.412Z,49.22
2022-07-28T07:33:46.618Z,48.07
2022-07-28T07:36:18.843Z,48.26
2022-07-28T07:38:51.317Z,48.47
2022-07-28T07:41:23.720Z,48.19
2022-07-28T07:43:56.856Z,47.92
2022-07-28T07:46:29.650Z,47.69
2022-07-28T07:49:02.064Z,47.10
2022-07-28T07:51:34.636Z,47.93
2022-07-28T07:54:07.340Z,47.64
2022-07-28T07:56:42.241Z,47.41
2022-07-28T07:59:14.563Z,47.39
2022-07-28T08:01:46.854Z,46.99
2022-07-28T08:04:19.303Z,46.72
2022-07-28T08:06:57.913Z,46.87
2022-07-28T08:09:30.530Z,46.71
2022-07-28T08:12:03.160Z,46.43
2022-07-28T08:14:35.549Z,45.83
2022-07-28T08:17:08.458Z,45.50
2022-07-28T08:19:40.723Z,45.55
2022-07-28T08:22:12.911Z,45.64
2022-07-28T08:24:45.249Z,45.10
2022-07-28T08:27:18.005Z,44.88
2022-07-28T08:29:50.421Z,44.60
2022-07-28T08:32:22.582Z,43.95
2022-07-28T08:35:15.887Z,44.66
2022-07-28T08:37:46.983Z,43.66
2022-07-28T08:40:22.414Z,42.66
2022-07-28T08:43:02.888Z,43.95
2022-07-28T08:45:37.502Z,43.71
2022-07-28T08:48:11.733Z,43.27
2022-07-28T08:50:45.297Z,43.14
2022-07-28T08:53:18.330Z,43.13
2022-07-28T08:55:51.857Z,43.07
2022-07-28T08:58:24.268Z,43.20
2022-07-28T09:00:56.597Z,42.08
2022-07-28T09:03:29.995Z,41.42
2022-07-28T09:06:02.217Z,41.04
2022-07-28T09:08:35.065Z,41.17
2022-07-28T09:11:08.308Z,41.00
2022-07-28T09:13:40.963Z,40.86
2022-07-28T09:16:16.264Z,40.96
2022-07-28T09:18:48.787Z,40.40
2022-07-28T09:21:21.422Z,40.26
2022-07-28T09:23:53.534Z,40.65
2022-07-28T09:26:25.901Z,40.25
2022-07-28T09:29:00.660Z,39.60
2022-07-28T09:31:31.573Z,39.53
2022-07-28T09:34:05.707Z,39.60
2022-07-28T09:36:42.586Z,39.69
2022-07-28T09:39:28.790Z,39.05
2022-07-28T09:42:01.249Z,39.49
2022-07-28T09:44:34.178Z,39.43
2022-07-28T09:47:25.134Z,39.34
2022-07-28T09:49:57.738Z,39.56
2022-07-28T09:52:35.041Z,38.91
2022-07-28T09:55:09.365Z,38.69
2022-07-28T09:57:45.757Z,38.41
2022-07-28T10:00:30.775Z,38.17
2022-07-28T10:03:04.472Z,38.10
2022-07-28T10:05:45.089Z,37.42
2022-07-28T10:08:17.271Z,37.51
2022-07-28T10:11:03.686Z,37.65
2022-07-28T10:13:37.337Z,37.70
2022-07-28T10:16:14.402Z,37.29
2022-07-28T10:18:47.692Z,37.40
2022-07-28T10:21:21.662Z,37.31
2022-07-28T10:23:56.077Z,37.11
2022-07-28T10:26:34.508Z,37.23
2022-07-28T10:29:09.854Z,37.08
2022-07-28T10:31:50.071Z,36.77
2022-07-28T10:34:25.068Z,37.00
2022-07-28T10:36:59.864Z,37.34
2022-07-28T10:39:37.806Z,36.74
2022-07-28T10:42:12.922Z,35.91
2022-07-28T10:44:46.471Z,35.92
2022-07-28T10:47:21.516Z,35.98
2022-07-28T10:49:54.028Z,36.33
2022-07-28T10:52:46.208Z,36.04
2022-07-28T10:55:24.418Z,35.51
2022-07-28T10:58:15.373Z,37.07
2022-07-28T11:00:56.703Z,36.30
2022-07-28T11:03:43.078Z,36.38
2022-07-28T11:06:32.160Z,36.13
2022-07-28T11:09:23.729Z,35.84
2022-07-28T11:11:58.074Z,36.12
2022-07-28T11:14:37.675Z,35.84
2022-07-28T11:17:24.665Z,36.55
2022-07-28T11:20:31.233Z,36.00
2022-07-28T11:23:47.837Z,35.43
2022-07-28T11:26:38.250Z,35.30
2022-07-28T11:29:21.470Z,35.44
2022-07-28T11:32:07.091Z,36.14
2022-07-28T11:35:09.185Z,35.58
2022-07-28T11:38:14.630Z,34.49
2022-07-28T11:40:48.555Z,34.67
2022-07-28T11:43:39.494Z,33.85
2022-07-28T11:46:27.867Z,34.69
2022-07-28T11:49:25.005Z,34.17
2022-07-28T11:52:24.499Z,33.63
2022-07-28T11:55:01.540Z,33.79
2022-07-28T11:57:44.114Z,32.92
2022-07-28T12:00:22.898Z,32.94
2022-07-28T12:02:56.669Z,32.83
2022-07-28T12:05:29.059Z,32.96
2022-07-28T12:08:14.634Z,32.90
2022-07-28T12:10:55.763Z,32.39
2022-07-28T12:13:31.481Z,34.44
2022-07-28T12:16:04.053Z,34.07
2022-07-28T12:18:36.512Z,32.65
2022-07-28T12:21:09.356Z,32.53
2022-07-28T12:23:46.170Z,32.81
2022-07-28T12:26:40.732Z,32.14
2022-07-28T12:29:16.071Z,31.74
2022-07-28T12:31:56.659Z,31.77
2022-07-28T12:34:29.782Z,32.21
2022-07-28T12:37:03.466Z,32.31
2022-07-28T12:39:39.752Z,32.02
2022-07-28T12:42:14.230Z,32.43
2022-07-28T12:44:48.774Z,32.43
2022-07-28T12:47:27.026Z,32.12
2022-07-28T12:50:14.392Z,32.52
2022-07-28T12:53:03.610Z,31.93
2022-07-28T12:55:36.022Z,31.64
2022-07-28T12:58:09.277Z,31.45
2022-07-28T13:00:52.299Z,31.45
2022-07-28T13:03:27.753Z,31.47
2022-07-28T13:06:10.923Z,31.73
2022-07-28T13:08:45.586Z,31.60
2022-07-28T13:11:41.960Z,31.30
2022-07-28T13:14:08.930Z,30.46
2022-07-28T13:16:41.600Z,30.98
2022-07-28T13:19:24.039Z,31.42
2022-07-28T13:22:01.639Z,31.50
2022-07-28T13:24:35.480Z,31.30
2022-07-28T13:27:09.119Z,32.04
2022-07-28T13:29:41.579Z,30.64
2022-07-28T13:32:13.972Z,30.88
2022-07-28T13:34:46.582Z,31.26
2022-07-28T13:37:19.116Z,31.26
2022-07-28T13:39:54.692Z,31.56
2022-07-28T13:42:27.118Z,30.80
2022-07-28T13:44:59.320Z,31.00
2022-07-28T13:47:35.739Z,30.68
2022-07-28T13:50:11.764Z,29.77
2022-07-28T13:52:44.184Z,29.91
2022-07-28T13:55:20.513Z,29.99
2022-07-28T13:57:56.466Z,30.30
2022-07-28T14:00:29.260Z,29.90
2022-07-28T14:03:01.965Z,30.08
2022-07-28T14:05:34.697Z,29.86
2022-07-28T14:08:08.860Z,29.47
2022-07-28T14:10:42.742Z,29.63
2022-07-28T14:13:21.519Z,29.71
2022-07-28T14:16:02.273Z,29.40
2022-07-28T14:18:39.116Z,29.59
2022-07-28T14:21:11.231Z,29.42
2022-07-28T14:23:43.553Z,29.03
2022-07-28T14:26:35.014Z,28.63
2022-07-28T14:29:11.568Z,28.64
2022-07-28T14:31:44.286Z,28.93
2022-07-28T14:34:17.199Z,28.83
2022-07-28T14:36:53.112Z,28.47
2022-07-28T14:39:25.292Z,28.12
2022-07-28T14:41:57.592Z,28.66
2022-07-28T14:44:30.187Z,28.41
2022-07-28T14:47:02.862Z,28.69
2022-07-28T14:49:35.187Z,28.39
2022-07-28T14:52:07.825Z,28.01
2022-07-28T14:54:41.012Z,27.65
2022-07-28T14:57:15.907Z,28.11
2022-07-28T14:59:48.605Z,28.12
2022-07-28T15:02:21.808Z,27.57
2022-07-28T15:05:02.583Z,27.47
2022-07-28T15:07:34.907Z,27.81
2022-07-28T15:10:10.632Z,27.83
2022-07-28T15:12:42.912Z,27.72
2022-07-28T15:15:15.649Z,27.74
2022-07-28T15:17:47.794Z,27.79
2022-07-28T15:20:20.602Z,27.58
2022-07-28T15:22:52.870Z,27.60
2022-07-28T15:25:25.394Z,27.03
2022-07-28T15:27:58.060Z,27.30
2022-07-28T15:30:30.346Z,27.89
2022-07-28T15:33:02.855Z,27.78
2022-07-28T15:35:59.059Z,27.41
2022-07-28T15:38:28.522Z,26.96
2022-07-28T15:41:01.925Z,27.44
2022-07-28T15:43:34.150Z,26.79
2022-07-28T15:46:09.490Z,27.24
2022-07-28T15:48:43.608Z,26.88
2022-07-28T15:51:16.171Z,26.83
2022-07-28T15:53:52.407Z,26.79
2022-07-28T15:56:26.365Z,26.09
2022-07-28T15:58:59.035Z,26.70
2022-07-28T16:01:31.709Z,27.24
2022-07-28T16:04:04.324Z,27.37
2022-07-28T16:07:05.897Z,27.46
2022-07-28T16:09:45.951Z,27.16
2022-07-28T16:12:19.450Z,27.88
2022-07-28T16:14:53.181Z,28.63
2022-07-28T16:17:25.815Z,27.82
2022-07-28T16:20:02.280Z,27.60
2022-07-28T16:22:37.680Z,27.19
2022-07-28T16:25:16.737Z,27.83
2022-07-28T16:27:49.577Z,27.80
2022-07-28T16:30:22.343Z,27.47
2022-07-28T16:32:55.174Z,26.63
2022-07-28T16:35:33.055Z,28.20
2022-07-28T16:38:06.765Z,28.21
2022-07-28T16:40:38.880Z,28.36
2022-07-28T16:43:11.143Z,27.62
2022-07-28T16:45:43.380Z,27.63
2022-07-28T16:48:15.640Z,27.88
2022-07-28T16:50:47.787Z,27.87
2022-07-28T16:53:20.045Z,28.11
2022-07-28T16:55:52.450Z,28.02
2022-07-28T16:58:24.793Z,28.99
2022-07-28T17:00:57.160Z,28.68
2022-07-28T17:03:31.390Z,28.44
2022-07-28T17:06:03.997Z,28.85
2022-07-28T17:08:36.898Z,28.81
2022-07-28T17:11:09.081Z,28.90
2022-07-28T17:13:45.256Z,28.97
2022-07-28T17:16:18.231Z,29.41
2022-07-28T17:18:50.411Z,29.58
2022-07-28T17:21:23.142Z,29.00
2022-07-28T17:23:55.765Z,29.48
2022-07-28T17:29:22.054Z,28.87
2022-07-28T17:31:54.325Z,28.95
2022-07-28T17:34:26.722Z,29.48
2022-07-28T17:36:59.095Z,30.21
2022-07-28T17:39:31.596Z,30.44
2022-07-28T17:42:04.361Z,30.32
2022-07-28T17:44:36.597Z,30.96
2022-07-28T17:47:09.332Z,31.12
2022-07-28T17:49:45.335Z,30.86
2022-07-28T17:52:17.923Z,30.85
2022-07-28T17:55:08.717Z,31.45
2022-07-28T17:57:42.120Z,30.47
2022-07-28T18:00:15.932Z,31.10
2022-07-28T18:02:51.051Z,30.71
2022-07-28T18:05:23.403Z,31.16
2022-07-28T18:07:59.296Z,31.98
2022-07-28T18:10:31.865Z,31.61
2022-07-28T18:13:04.689Z,32.12
2022-07-28T18:15:37.289Z,32.76
2022-07-28T18:18:10.309Z,33.01
2022-07-28T18:20:42.606Z,33.13
2022-07-28T18:23:15.662Z,33.00
2022-07-28T18:25:47.839Z,33.22
2022-07-28T18:28:20.724Z,33.46
2022-07-28T18:30:53.444Z,34.10
2022-07-28T18:33:25.923Z,33.64
2022-07-28T18:35:58.048Z,34.34
2022-07-28T18:38:30.422Z,34.29
2022-07-28T18:41:02.992Z,34.52
2022-07-28T18:43:35.614Z,34.87
2022-07-28T18:46:09.740Z,34.88
2022-07-28T18:48:42.242Z,35.08
2022-07-28T18:51:14.780Z,35.67
2022-07-28T18:53:47.146Z,35.41
2022-07-28T18:56:19.391Z,36.00
2022-07-28T18:58:54.244Z,36.08
2022-07-28T19:01:26.548Z,36.19
2022-07-28T19:03:58.799Z,36.70
2022-07-28T19:06:31.411Z,36.90
2022-07-28T19:09:03.945Z,37.88
2022-07-28T19:11:36.565Z,38.23
2022-07-28T19:14:10.190Z,38.46
2022-07-28T19:16:42.779Z,37.72
2022-07-28T19:19:15.225Z,36.83
2022-07-28T19:21:47.354Z,37.38
2022-07-28T19:24:20.404Z,37.53
2022-07-28T19:26:53.879Z,37.87
2022-07-28T19:29:27.345Z,38.18
2022-07-28T19:31:59.533Z,38.26
2022-07-28T19:34:32.243Z,38.49
2022-07-28T19:37:05.381Z,38.85
2022-07-28T19:40:01.600Z,39.09
2022-07-28T19:42:35.319Z,39.79
2022-07-28T19:45:09.435Z,40.10
2022-07-28T19:47:42.347Z,40.47
2022-07-28T19:50:14.616Z,40.96
2022-07-28T19:52:47.219Z,40.98
2022-07-28T19:55:19.427Z,41.62
2022-07-28T19:57:52.295Z,41.65
2022-07-28T20:00:24.447Z,41.68
2022-07-28T20:02:56.702Z,41.70
2022-07-28T20:05:33.839Z,41.61
2022-07-28T20:08:06.706Z,42.09
2022-07-28T20:10:39.035Z,42.34
2022-07-28T20:13:11.966Z,42.25
2022-07-28T20:15:44.349Z,42.46
2022-07-28T20:18:19.354Z,42.44
2022-07-28T20:20:51.806Z,42.48
2022-07-28T20:23:24.082Z,42.47
2022-07-28T20:25:57.756Z,42.83
2022-07-28T20:28:29.890Z,43.37
2022-07-28T20:31:02.773Z,43.45
2022-07-28T20:33:35.103Z,43.57
2022-07-28T20:36:09.354Z,43.82
2022-07-28T20:38:41.642Z,43.76
2022-07-28T20:41:14.228Z,43.80
2022-07-28T20:43:59.682Z,43.95
2022-07-28T20:46:40.296Z,43.87
2022-07-28T20:49:13.120Z,43.79
2022-07-28T20:51:50.766Z,43.75
2022-07-28T20:54:23.432Z,43.51
2022-07-28T20:56:56.294Z,43.94
2022-07-28T20:59:28.599Z,43.81
2022-07-28T21:02:00.910Z,43.97
2022-07-28T21:04:33.415Z,43.94
2022-07-28T21:07:05.755Z,43.99
2022-07-28T21:09:38.951Z,43.98
2022-07-28T21:12:11.920Z,44.45
2022-07-28T21:14:44.454Z,44.27
2022-07-28T21:17:16.978Z,44.18
2022-07-28T21:19:51.313Z,44.79
2022-07-28T21:22:25.686Z,44.72
2022-07-28T21:24:57.962Z,45.01
2022-07-28T21:27:51.902Z,44.74
2022-07-28T21:30:27.853Z,45.41
2022-07-28T21:33:00.633Z,45.11
2022-07-28T21:35:33.502Z,44.87
2022-07-28T21:38:05.909Z,44.79
2022-07-28T21:40:39.247Z,45.04
2022-07-28T21:43:11.734Z,45.66
2022-07-28T21:45:45.660Z,45.52
2022-07-28T21:48:19.329Z,45.43
2022-07-28T21:50:51.809Z,45.94
2022-07-28T21:53:24.149Z,45.50
2022-07-28T21:55:57.756Z,45.41
2022-07-28T21:58:30.023Z,46.11
2022-07-28T22:01:02.896Z,45.83
2022-07-28T22:03:37.751Z,46.23
2022-07-28T22:06:10.365Z,47.12
2022-07-28T22:08:42.716Z,46.76
2022-07-28T22:11:15.044Z,46.20
2022-07-28T22:13:47.256Z,46.67
2022-07-28T22:16:21.060Z,47.12
2022-07-28T22:18:53.625Z,46.86
2022-07-28T22:21:25.814Z,46.59
2022-07-28T22:23:58.047Z,46.62
2022-07-28T22:26:30.412Z,47.19
2022-07-28T22:29:02.524Z,47.72
2022-07-28T22:31:34.826Z,47.57
2022-07-28T22:34:07.627Z,47.17
2022-07-28T22:36:40.212Z,47.33
2022-07-28T22:39:12.689Z,47.92
2022-07-28T22:41:46.937Z,48.16
2022-07-28T22:44:19.701Z,48.05
2022-07-28T22:46:52.208Z,48.36
2022-07-28T22:49:25.324Z,48.66
2022-07-28T22:51:57.653Z,48.88
2022-07-28T22:54:29.746Z,48.52
2022-07-28T22:57:02.063Z,48.66
2022-07-28T22:59:35.716Z,48.43
2022-07-28T23:02:12.188Z,48.39
2022-07-28T23:04:51.385Z,48.58
2022-07-28T23:07:51.003Z,48.82
2022-07-28T23:10:16.222Z,48.98
2022-07-28T23:12:48.773Z,49.36
2022-07-28T23:15:21.343Z,49.68
2022-07-28T23:17:53.875Z,49.61
2022-07-28T23:20:26.063Z,50.00
2022-07-28T23:22:58.931Z,50.06
2022-07-28T23:25:31.172Z,49.83
2022-07-28T23:28:03.699Z,50.07
2022-07-28T23:30:36.227Z,50.11
2022-07-28T23:33:09.182Z,50.07
2022-07-28T23:35:48.209Z,49.84
2022-07-28T23:38:20.530Z,49.96
2022-07-28T23:40:52.802Z,49.86
2022-07-28T23:43:25.156Z,49.99
2022-07-28T23:45:57.713Z,50.26
2022-07-28T23:48:30.267Z,50.08
2022-07-28T23:51:02.485Z,50.23
2022-07-28T23:53:37.337Z,50.34
2022-07-28T23:56:08.471Z,50.34
2022-07-28T23:58:41.219Z,50.83
